createdAt,value
2023-04-06T00:05:54.454Z,15.85
2023-04-06T00:12:57.478Z,14.45
2023-04-06T00:19:59.091Z,16.65
2023-04-06T00:27:00.856Z,16.15
2023-04-06T00:34:02.453Z,21.58
2023-04-06T00:41:04.882Z,23.42
2023-04-06T00:48:07.100Z,28.67
2023-04-06T00:55:09.018Z,25.73
2023-04-06T01:02:15.991Z,21.00
2023-04-06T01:09:22.958Z,21.13
2023-04-06T01:16:28.154Z,18.88
2023-04-06T01:23:56.130Z,33.70
2023-04-06T01:31:07.756Z,36.13
2023-04-06T01:38:20.512Z,79.05
2023-04-06T01:45:23.750Z,50.22
2023-04-06T01:52:28.206Z,37.83
2023-04-06T01:59:30.548Z,50.55
2023-04-06T02:06:34.199Z,25.35
2023-04-06T02:13:37.977Z,42.35
2023-04-06T02:20:39.641Z,44.22
2023-04-06T02:27:41.277Z,22.80
2023-04-06T02:34:42.873Z,20.45
2023-04-06T02:41:45.593Z,17.27
2023-04-06T02:48:49.943Z,15.95
2023-04-06T02:55:51.650Z,13.20
2023-04-06T03:02:53.454Z,15.05
2023-04-06T03:09:55.499Z,15.52
2023-04-06T03:16:57.153Z,14.20
2023-04-06T03:24:00.464Z,13.43
2023-04-06T03:31:02.509Z,19.80
2023-04-06T03:38:25.898Z,35.75
2023-04-06T03:45:28.844Z,27.45
2023-04-06T03:52:30.548Z,12.65
2023-04-06T03:59:32.248Z,10.73
2023-04-06T04:06:33.861Z,11.23
2023-04-06T04:13:35.540Z,10.65
2023-04-06T04:20:40.408Z,10.18
2023-04-06T04:27:43.737Z,10.40
2023-04-06T04:34:45.637Z,8.98
2023-04-06T04:41:57.305Z,9.75
2023-04-06T04:48:59.294Z,9.43
2023-04-06T04:56:02.377Z,10.30
2023-04-06T05:03:04.995Z,8.73
2023-04-06T05:10:10.803Z,11.77
2023-04-06T05:17:22.043Z,6.50
2023-04-06T05:24:26.438Z,10.35
2023-04-06T05:31:30.443Z,8.85
2023-04-06T05:38:34.235Z,8.85
2023-04-06T05:45:45.752Z,7.88
2023-04-06T05:52:47.642Z,9.52
2023-04-06T05:59:52.659Z,9.13
2023-04-06T06:06:56.161Z,9.98
2023-04-06T06:14:03.562Z,11.25
2023-04-06T06:21:08.918Z,10.30
2023-04-06T06:28:10.633Z,7.22
2023-04-06T06:35:12.611Z,11.40
2023-04-06T06:42:14.800Z,15.23
2023-04-06T06:49:26.820Z,8.48
2023-04-06T06:56:28.861Z,8.10
2023-04-06T07:03:31.710Z,10.10
2023-04-06T07:10:33.422Z,9.52
2023-04-06T07:17:35.151Z,11.75
2023-04-06T07:24:36.891Z,11.40
2023-04-06T07:31:38.566Z,10.63
2023-04-06T07:38:40.424Z,11.27
2023-04-06T07:45:42.172Z,11.05
2023-04-06T07:52:44.323Z,15.23
2023-04-06T07:59:46.313Z,16.77
2023-04-06T08:06:47.926Z,18.90
2023-04-06T08:13:49.493Z,10.75
2023-04-06T08:20:51.117Z,11.50
2023-04-06T08:27:52.857Z,7.47
2023-04-06T08:34:55.954Z,6.57
2023-04-06T08:41:58.852Z,6.32
2023-04-06T08:49:01.950Z,8.13
2023-04-06T08:56:05.718Z,5.35
2023-04-06T09:03:07.546Z,4.35
2023-04-06T09:10:09.728Z,8.20
2023-04-06T09:17:21.226Z,6.82
2023-04-06T09:24:27.047Z,7.75
2023-04-06T09:31:30.213Z,6.93
2023-04-06T09:38:31.962Z,5.75
2023-04-06T09:45:33.573Z,6.70
2023-04-06T09:52:39.403Z,5.88
2023-04-06T09:59:43.859Z,8.23
2023-04-06T10:06:45.488Z,9.55
2023-04-06T10:13:48.647Z,7.53
2023-04-06T10:20:52.472Z,4.70
2023-04-06T10:28:00.623Z,5.38
2023-04-06T10:35:09.410Z,4.97
2023-04-06T10:42:11.586Z,5.93
2023-04-06T10:49:13.325Z,10.77
2023-04-06T10:56:16.270Z,7.03
2023-04-06T11:03:17.992Z,5.97
2023-04-06T11:10:23.649Z,4.88
2023-04-06T11:17:32.257Z,7.13
2023-04-06T11:24:33.812Z,6.47
2023-04-06T11:31:42.114Z,4.35
2023-04-06T11:38:43.686Z,6.53
2023-04-06T11:45:45.884Z,6.75
2023-04-06T11:52:48.808Z,7.28
2023-04-06T11:59:50.725Z,7.03
2023-04-06T12:06:52.335Z,7.18
2023-04-06T12:13:54.350Z,6.18
2023-04-06T12:20:56.000Z,7.65
2023-04-06T12:27:57.756Z,5.10
2023-04-06T12:34:59.312Z,6.78
2023-04-06T12:42:03.681Z,5.57
2023-04-06T12:49:05.322Z,6.35
2023-04-06T12:56:18.223Z,6.68
2023-04-06T13:03:20.407Z,7.43
2023-04-06T13:10:22.017Z,6.97
2023-04-06T13:17:23.789Z,5.65
2023-04-06T13:24:25.429Z,6.35
2023-04-06T13:31:27.171Z,5.18
2023-04-06T13:38:28.839Z,5.88
2023-04-06T13:45:30.441Z,7.47
2023-04-06T13:52:32.016Z,7.20
2023-04-06T13:59:34.731Z,5.43
2023-04-06T14:06:36.332Z,6.55
2023-04-06T14:13:37.846Z,8.38
2023-04-06T14:20:39.451Z,5.70
2023-04-06T14:27:41.264Z,7.25
2023-04-06T14:34:42.894Z,8.85
2023-04-06T14:41:44.457Z,7.10
2023-04-06T14:48:46.281Z,7.22
2023-04-06T14:55:47.870Z,7.03
2023-04-06T15:02:49.573Z,6.97
2023-04-06T15:09:51.230Z,6.28
2023-04-06T15:16:52.783Z,6.63
2023-04-06T15:23:54.793Z,6.95
2023-04-06T15:30:56.734Z,5.93
2023-04-06T15:37:58.508Z,5.55
2023-04-06T15:45:00.149Z,5.88
2023-04-06T15:52:01.779Z,7.22
2023-04-06T15:59:04.229Z,6.88
2023-04-06T16:06:08.969Z,12.57
2023-04-06T16:13:11.160Z,6.70
2023-04-06T16:20:15.634Z,7.38
2023-04-06T16:27:17.627Z,8.07
2023-04-06T16:34:19.202Z,8.00
2023-04-06T16:41:21.511Z,8.15
2023-04-06T16:48:24.176Z,8.60
2023-04-06T16:55:25.713Z,7.28
2023-04-06T17:02:27.380Z,7.68
2023-04-06T17:09:29.022Z,9.25
2023-04-06T17:16:30.816Z,21.90
2023-04-06T17:23:32.448Z,7.57
2023-04-06T17:30:34.530Z,7.07
2023-04-06T17:37:36.378Z,7.80
2023-04-06T17:44:38.536Z,10.75
2023-04-06T17:51:40.136Z,8.95
2023-04-06T17:58:41.720Z,9.10
2023-04-06T18:05:43.325Z,6.22
2023-04-06T18:12:44.956Z,12.05
2023-04-06T18:19:47.124Z,9.95
2023-04-06T18:26:48.743Z,7.32
2023-04-06T18:33:52.013Z,8.02
2023-04-06T18:40:55.705Z,9.80
2023-04-06T18:47:57.310Z,9.23
2023-04-06T18:54:58.892Z,13.25
2023-04-06T19:02:00.590Z,9.60
2023-04-06T19:09:04.586Z,10.00
2023-04-06T19:16:12.477Z,8.68
2023-04-06T19:23:14.212Z,24.85
2023-04-06T19:30:16.108Z,11.90
2023-04-06T19:37:17.703Z,10.45
2023-04-06T19:44:19.259Z,12.02
2023-04-06T19:51:20.809Z,10.35
2023-04-06T19:58:23.238Z,11.68
2023-04-06T20:05:24.774Z,10.75
2023-04-06T20:12:26.380Z,11.18
2023-04-06T20:19:27.952Z,11.23
2023-04-06T20:26:32.312Z,11.95
2023-04-06T20:33:36.925Z,10.65
2023-04-06T20:40:38.439Z,9.55
2023-04-06T20:47:40.336Z,13.27
2023-04-06T20:54:41.972Z,13.95
2023-04-06T21:01:44.224Z,11.77
2023-04-06T21:08:46.064Z,10.18
2023-04-06T21:15:48.376Z,12.73
2023-04-06T21:22:50.020Z,12.52
2023-04-06T21:29:51.613Z,13.02
2023-04-06T21:36:53.274Z,14.00
2023-04-06T21:43:54.878Z,10.95
2023-04-06T21:50:56.428Z,16.13
2023-04-06T21:57:57.957Z,12.55
2023-04-06T22:04:59.559Z,15.60
2023-04-06T22:12:01.303Z,13.43
2023-04-06T22:19:02.863Z,15.57
2023-04-06T22:26:04.464Z,13.45
2023-04-06T22:33:06.625Z,13.40
2023-04-06T22:40:08.779Z,15.10
2023-04-06T22:47:10.393Z,11.98
2023-04-06T22:54:12.352Z,14.40
2023-04-06T23:01:14.111Z,12.88
2023-04-06T23:08:15.713Z,11.25
2023-04-06T23:15:17.338Z,13.35
2023-04-06T23:22:18.895Z,9.77
2023-04-06T23:29:20.557Z,12.57
2023-04-06T23:36:22.075Z,10.20
2023-04-06T23:43:23.620Z,14.13
2023-04-06T23:50:25.292Z,11.13
2023-04-06T23:57:26.949Z,13.20
